Karen Sue — WDI3416 — position and weather

sailwx.info

Track history (hours):
 
Tides and Currents Weather Stations Pressure Air Temp Water Temp Dewpoint Dewpoint Depression Visibility Wind Speed Wind Dir Waves Ship Positions

Karen Sue

Owner: Karen Sue, LLC, Ventura, CA. More information available from US FCC via Universal Licensing System and Coast Guard Vessel Documentation Center.

Last reported at 2017-Nov-18 09:56 UTC. Time now 2017-Nov-18 10:09 UTC.
Position N 34°14' W 119°16'.

Length 20 m.

Type: Fishing. MMSI: 367688090.

Date/timePositionNaut miles runAvg speedWind from/ knotsBaromVisibWave heightAir tempDewpointWater temp
2017-Nov-18 09:56N 34°14' W 119°16'0 0.0
2017-Nov-18 09:20N 34°14' W 119°16'0 0.0
2017-Nov-18 08:56N 34°14' W 119°16'0 0.0
2017-Nov-18 06:23N 34°14' W 119°16'0 0.0
2017-Nov-18 05:47N 34°14' W 119°16'0 0.0
2017-Nov-18 05:17N 34°14' W 119°16'0 0.0
2017-Nov-18 04:56N 34°14' W 119°16'0 0.0
2017-Nov-18 04:26N 34°14' W 119°16'0 0.0
2017-Nov-18 02:18N 34°14' W 119°16'0 0.0
2017-Nov-18 01:50N 34°14' W 119°16'0 0.0
2017-Nov-17 23:53N 34°14' W 119°16'0 0.0
2017-Nov-17 21:50N 34°14' W 119°16'0 0.0
2017-Nov-17 20:42N 34°14' W 119°16'0 0.0
2017-Nov-17 20:20N 34°14' W 119°16'0 0.0
2017-Nov-17 18:56N 34°14' W 119°16'0 0.0
2017-Nov-17 18:23N 34°14' W 119°16'1 1.7
2017-Nov-17 18:00N 34°15' W 119°17'0 0.7
2017-Nov-17 17:30N 34°15' W 119°17'1 2.1
2017-Nov-17 16:58N 34°14' W 119°16'0 0.0
2017-Nov-17 16:29N 34°14' W 119°16'0 0.1
2017-Nov-17 16:00N 34°14' W 119°16'3 6.1
2017-Nov-17 15:30N 34°13' W 119°19'5 8.3
2017-Nov-17 14:53N 34°11' W 119°25'3 8.1
2017-Nov-17 14:30N 34°10' W 119°28'4 8.2
2017-Nov-17 13:59N 34°08' W 119°33'6 8.3
2017-Nov-17 13:14N 34°06' W 119°40'2 8.3
2017-Nov-17 13:00N 34°06' W 119°42'4 8.1
2017-Nov-17 12:29N 34°04' W 119°47'3 5.7
2017-Nov-17 11:57N 34°04' W 119°51'0 0.0
2017-Nov-17 11:27N 34°04' W 119°51'3 6.0
2017-Nov-17 11:00N 34°05' W 119°54'3 5.2
2017-Nov-17 10:30N 34°03' W 119°56'3 5.5
2017-Nov-17 09:59N 34°00' W 119°54'0 0.8
2017-Nov-17 09:26N 34°01' W 119°54'0 0.9
2017-Nov-17 09:00N 34°01' W 119°55'1 0.4
2017-Nov-17 07:05N 34°02' W 119°55'0 0.0
2017-Nov-17 05:50N 34°02' W 119°55'0 0.1
2017-Nov-17 05:25N 34°02' W 119°55'0 0.0
2017-Nov-17 04:46N 34°02' W 119°55'0 0.0
2017-Nov-17 04:28N 34°02' W 119°55'0 1.0
2017-Nov-17 03:59N 34°02' W 119°55'0 0.4
2017-Nov-17 03:02N 34°02' W 119°55'0 1.5
2017-Nov-17 03:00N 34°02' W 119°55'0 0.1
2017-Nov-17 02:18N 34°02' W 119°55'1 0.1
2017-Nov-16 19:36N 34°02' W 119°54'1 6.6
2017-Nov-16 19:28N 34°01' W 119°54'3 3.4
2017-Nov-16 18:30N 33°58' W 119°53'4 7.9
2017-Nov-16 18:00N 34°02' W 119°55'0 0.0
2017-Nov-16 13:51N 34°02' W 119°55'1 2.3
2017-Nov-16 13:30N 34°01' W 119°55'0 0.1
2017-Nov-16 13:00N 34°01' W 119°55'0 0.0
2017-Nov-16 12:30N 34°01' W 119°55'0 0.6
2017-Nov-16 11:56N 34°01' W 119°55'0 0.2
2017-Nov-16 11:18N 34°01' W 119°55'0 0.2
2017-Nov-16 11:00N 34°01' W 119°55'0 0.3
2017-Nov-16 10:12N 34°01' W 119°55'0 0.0
2017-Nov-16 08:40N 34°01' W 119°55'1 3.2
2017-Nov-16 08:26N 34°00' W 119°55'4 6.7
2017-Nov-16 07:53N 34°04' W 119°57'2 4.7
2017-Nov-16 07:29N 34°05' W 119°55'4 6.9
2017-Nov-16 06:59N 34°04' W 119°51'2 2.6
2017-Nov-16 06:19N 34°03' W 119°49'0 0.0
2017-Nov-16 05:55N 34°03' W 119°49'0 0.0
2017-Nov-16 05:25N 34°03' W 119°49'0 0.0
2017-Nov-16 04:55N 34°03' W 119°49'0 0.6
2017-Nov-16 04:30N 34°03' W 119°49'3 5.9
2017-Nov-16 03:55N 34°03' W 119°44'3 6.0
2017-Nov-16 03:29N 34°02' W 119°42'2 4.4
2017-Nov-16 02:59N 34°01' W 119°39'1 3.0
2017-Nov-16 02:30N 34°02' W 119°37'2 3.6
2017-Nov-16 01:56N 34°03' W 119°36'0 0.0
2017-Nov-16 01:26N 34°03' W 119°36'0 0.0
2017-Nov-16 00:47N 34°03' W 119°36'0 0.0
2017-Nov-16 00:23N 34°03' W 119°36'0 0.0
2017-Nov-15 23:02N 34°03' W 119°36'0 0.0
2017-Nov-15 23:00N 34°03' W 119°36'3 6.4
2017-Nov-15 22:31N 34°05' W 119°32'4 7.1
2017-Nov-15 21:59N 34°07' W 119°29'3 6.3
2017-Nov-15 21:29N 34°09' W 119°26'3 7.5
2017-Nov-15 21:01N 34°11' W 119°22'4 7.6
2017-Nov-15 20:26N 34°13' W 119°18'2 4.3
2017-Nov-15 19:59N 34°14' W 119°16'0 0.0
2017-Nov-15 19:26N 34°14' W 119°16'0 0.0
2017-Nov-15 18:14N 34°14' W 119°16'0 0.0
2017-Nov-15 17:53N 34°14' W 119°16'0 0.2
2017-Nov-15 17:26N 34°14' W 119°16'4 3.4
2017-Nov-15 16:23N 34°11' W 119°16'5 8.0
2017-Nov-15 15:48N 34°07' W 119°12'3 7.9
2017-Nov-15 15:24N 34°05' W 119°09'1 1.3
2017-Nov-15 14:43N 34°05' W 119°08'0 0.2
2017-Nov-15 14:25N 34°05' W 119°08'0 0.1
2017-Nov-15 13:09N 34°05' W 119°08'0 0.4
2017-Nov-15 12:54N 34°05' W 119°08'0 0.1
2017-Nov-15 11:35N 34°05' W 119°08'0 0.0
2017-Nov-15 11:11N 34°05' W 119°08'0 0.0
2017-Nov-15 10:56N 34°05' W 119°08'0 0.0
2017-Nov-15 09:54N 34°05' W 119°08'0 0.0
2017-Nov-15 09:09N 34°05' W 119°08'0 0.0
2017-Nov-15 07:42N 34°05' W 119°08'0 0.0
2017-Nov-15 07:03N 34°05' W 119°08'0 0.3
2017-Nov-15 06:54N 34°05' W 119°08'0 0.0
2017-Nov-15 05:39N 34°05' W 119°08'0 0.0
2017-Nov-15 05:21N 34°05' W 119°08'0 0.1
2017-Nov-15 04:54N 34°05' W 119°08'0 0.0
2017-Nov-15 04:16N 34°05' W 119°08'0 0.0
2017-Nov-15 03:55N 34°05' W 119°08'0 0.2
2017-Nov-15 03:30N 34°05' W 119°08'0 0.0
2017-Nov-15 01:01N 34°05' W 119°08'0 0.3
2017-Nov-15 00:59N 34°05' W 119°08'4 7.1
2017-Nov-15 00:23N 34°07' W 119°12'4 8.4
2017-Nov-14 23:56N 34°10' W 119°15'4 8.1
2017-Nov-14 23:30N 34°14' W 119°17'1 1.7
2017-Nov-14 22:56N 34°14' W 119°16'0 0.0
2017-Nov-14 22:29N 34°14' W 119°16'0 0.0
2017-Nov-14 21:56N 34°14' W 119°16'0 0.0
2017-Nov-14 21:26N 34°14' W 119°16'0 0.0
2017-Nov-14 20:59N 34°14' W 119°16'0 0.0
2017-Nov-14 20:29N 34°14' W 119°16'0 0.0
2017-Nov-14 19:53N 34°14' W 119°16'0 0.0
2017-Nov-14 19:29N 34°14' W 119°16'0 0.0
2017-Nov-14 18:47N 34°14' W 119°16'0 0.0
2017-Nov-14 18:20N 34°14' W 119°16'0 0.0
2017-Nov-14 17:59N 34°14' W 119°16'0 0.0
2017-Nov-14 17:29N 34°14' W 119°16'0 0.1
2017-Nov-14 16:32N 34°14' W 119°16'0 0.2
2017-Nov-14 16:30N 34°14' W 119°16'2 4.3
2017-Nov-14 15:57N 34°12' W 119°16'4 8.0
2017-Nov-14 15:30N 34°09' W 119°14'4 7.7
2017-Nov-14 14:59N 34°06' W 119°11'2 5.1
2017-Nov-14 14:30N 34°05' W 119°08'0 0.1
2017-Nov-14 13:58N 34°05' W 119°08'0 0.2
2017-Nov-14 13:30N 34°05' W 119°08'0 0.2
2017-Nov-14 12:57N 34°05' W 119°08'0 0.2
2017-Nov-14 12:29N 34°05' W 119°08'0 0.1
2017-Nov-14 11:38N 34°05' W 119°08'0 0.0
2017-Nov-14 11:11N 34°05' W 119°08'0 0.0
2017-Nov-14 10:48N 34°05' W 119°08'0 0.0
2017-Nov-14 10:30N 34°05' W 119°08'0 0.0
2017-Nov-14 09:47N 34°05' W 119°08'0 0.0
2017-Nov-14 07:59N 34°05' W 119°08'0 0.0
2017-Nov-14 07:29N 34°05' W 119°08'0 0.0
2017-Nov-14 06:56N 34°05' W 119°08'0 0.0
2017-Nov-14 06:16N 34°05' W 119°08'0 0.0
2017-Nov-14 05:52N 34°05' W 119°08'0 0.0
2017-Nov-14 05:28N 34°05' W 119°08'0 0.0
2017-Nov-14 04:49N 34°05' W 119°08'0 0.0
2017-Nov-14 03:25N 34°05' W 119°08'0 0.0
2017-Nov-14 02:40N 34°05' W 119°08'0 0.0
2017-Nov-14 01:10N 34°05' W 119°08'0 1.7
2017-Nov-14 01:00N 34°05' W 119°08'4 8.1
2017-Nov-14 00:28N 34°07' W 119°13'4 8.1
2017-Nov-14 00:00N 34°10' W 119°15'4 8.1
2017-Nov-13 23:30N 34°14' W 119°17'1 0.9
2017-Nov-13 22:48N 34°14' W 119°16'0 0.0
2017-Nov-13 22:27N 34°14' W 119°16'0 0.0
2017-Nov-13 21:57N 34°14' W 119°16'20 0.9
2017-Nov-13 00:22N 34°03' W 119°36'0 0.0
2017-Nov-12 23:55N 34°03' W 119°36'0 0.0
2017-Nov-12 23:19N 34°03' W 119°36'0 0.0
2017-Nov-12 22:10N 34°03' W 119°36'0 0.0
2017-Nov-12 21:58N 34°03' W 119°36'0 0.0
2017-Nov-12 21:28N 34°03' W 119°36'0 0.0
2017-Nov-12 20:25N 34°03' W 119°36'  
Track history (hours):
 
Tides and Currents Weather Stations Pressure Air Temp Water Temp Dewpoint Dewpoint Depression Visibility Wind Speed Wind Dir Waves Ship Positions

Karen Sue

Owner: Karen Sue, LLC, Ventura, CA. More information available from US FCC via Universal Licensing System and Coast Guard Vessel Documentation Center.

Last reported at 2017-Nov-18 09:56 UTC. Time now 2017-Nov-18 10:09 UTC.
Position N 34°14' W 119°16'.

Length 20 m.

Type: Fishing. MMSI: 367688090.

Date/timePositionNaut miles runAvg speedWind from/ knotsBaromVisibWave heightAir tempDewpointWater temp
2017-Nov-18 09:56N 34°14' W 119°16'0 0.0
2017-Nov-18 09:20N 34°14' W 119°16'0 0.0
2017-Nov-18 08:56N 34°14' W 119°16'0 0.0
2017-Nov-18 06:23N 34°14' W 119°16'0 0.0
2017-Nov-18 05:47N 34°14' W 119°16'0 0.0
2017-Nov-18 05:17N 34°14' W 119°16'0 0.0
2017-Nov-18 04:56N 34°14' W 119°16'0 0.0
2017-Nov-18 04:26N 34°14' W 119°16'0 0.0
2017-Nov-18 02:18N 34°14' W 119°16'0 0.0
2017-Nov-18 01:50N 34°14' W 119°16'0 0.0
2017-Nov-17 23:53N 34°14' W 119°16'0 0.0
2017-Nov-17 21:50N 34°14' W 119°16'0 0.0
2017-Nov-17 20:42N 34°14' W 119°16'0 0.0
2017-Nov-17 20:20N 34°14' W 119°16'0 0.0
2017-Nov-17 18:56N 34°14' W 119°16'0 0.0
2017-Nov-17 18:23N 34°14' W 119°16'1 1.7
2017-Nov-17 18:00N 34°15' W 119°17'0 0.7
2017-Nov-17 17:30N 34°15' W 119°17'1 2.1
2017-Nov-17 16:58N 34°14' W 119°16'0 0.0
2017-Nov-17 16:29N 34°14' W 119°16'0 0.1
2017-Nov-17 16:00N 34°14' W 119°16'3 6.1
2017-Nov-17 15:30N 34°13' W 119°19'5 8.3
2017-Nov-17 14:53N 34°11' W 119°25'3 8.1
2017-Nov-17 14:30N 34°10' W 119°28'4 8.2
2017-Nov-17 13:59N 34°08' W 119°33'6 8.3
2017-Nov-17 13:14N 34°06' W 119°40'2 8.3
2017-Nov-17 13:00N 34°06' W 119°42'4 8.1
2017-Nov-17 12:29N 34°04' W 119°47'3 5.7
2017-Nov-17 11:57N 34°04' W 119°51'0 0.0
2017-Nov-17 11:27N 34°04' W 119°51'3 6.0
2017-Nov-17 11:00N 34°05' W 119°54'3 5.2
2017-Nov-17 10:30N 34°03' W 119°56'3 5.5
2017-Nov-17 09:59N 34°00' W 119°54'0 0.8
2017-Nov-17 09:26N 34°01' W 119°54'0 0.9
2017-Nov-17 09:00N 34°01' W 119°55'1 0.4
2017-Nov-17 07:05N 34°02' W 119°55'0 0.0
2017-Nov-17 05:50N 34°02' W 119°55'0 0.1
2017-Nov-17 05:25N 34°02' W 119°55'0 0.0
2017-Nov-17 04:46N 34°02' W 119°55'0 0.0
2017-Nov-17 04:28N 34°02' W 119°55'0 1.0
2017-Nov-17 03:59N 34°02' W 119°55'0 0.4
2017-Nov-17 03:02N 34°02' W 119°55'0 1.5
2017-Nov-17 03:00N 34°02' W 119°55'0 0.1
2017-Nov-17 02:18N 34°02' W 119°55'1 0.1
2017-Nov-16 19:36N 34°02' W 119°54'1 6.6
2017-Nov-16 19:28N 34°01' W 119°54'3 3.4
2017-Nov-16 18:30N 33°58' W 119°53'4 7.9
2017-Nov-16 18:00N 34°02' W 119°55'0 0.0
2017-Nov-16 13:51N 34°02' W 119°55'1 2.3
2017-Nov-16 13:30N 34°01' W 119°55'0 0.1
2017-Nov-16 13:00N 34°01' W 119°55'0 0.0
2017-Nov-16 12:30N 34°01' W 119°55'0 0.6
2017-Nov-16 11:56N 34°01' W 119°55'0 0.2
2017-Nov-16 11:18N 34°01' W 119°55'0 0.2
2017-Nov-16 11:00N 34°01' W 119°55'0 0.3
2017-Nov-16 10:12N 34°01' W 119°55'0 0.0
2017-Nov-16 08:40N 34°01' W 119°55'1 3.2
2017-Nov-16 08:26N 34°00' W 119°55'4 6.7
2017-Nov-16 07:53N 34°04' W 119°57'2 4.7
2017-Nov-16 07:29N 34°05' W 119°55'4 6.9
2017-Nov-16 06:59N 34°04' W 119°51'2 2.6
2017-Nov-16 06:19N 34°03' W 119°49'0 0.0
2017-Nov-16 05:55N 34°03' W 119°49'0 0.0
2017-Nov-16 05:25N 34°03' W 119°49'0 0.0
2017-Nov-16 04:55N 34°03' W 119°49'0 0.6
2017-Nov-16 04:30N 34°03' W 119°49'3 5.9
2017-Nov-16 03:55N 34°03' W 119°44'3 6.0
2017-Nov-16 03:29N 34°02' W 119°42'2 4.4
2017-Nov-16 02:59N 34°01' W 119°39'1 3.0
2017-Nov-16 02:30N 34°02' W 119°37'2 3.6
2017-Nov-16 01:56N 34°03' W 119°36'0 0.0
2017-Nov-16 01:26N 34°03' W 119°36'0 0.0
2017-Nov-16 00:47N 34°03' W 119°36'0 0.0
2017-Nov-16 00:23N 34°03' W 119°36'0 0.0
2017-Nov-15 23:02N 34°03' W 119°36'0 0.0
2017-Nov-15 23:00N 34°03' W 119°36'3 6.4
2017-Nov-15 22:31N 34°05' W 119°32'4 7.1
2017-Nov-15 21:59N 34°07' W 119°29'3 6.3
2017-Nov-15 21:29N 34°09' W 119°26'3 7.5
2017-Nov-15 21:01N 34°11' W 119°22'4 7.6
2017-Nov-15 20:26N 34°13' W 119°18'2 4.3
2017-Nov-15 19:59N 34°14' W 119°16'0 0.0
2017-Nov-15 19:26N 34°14' W 119°16'0 0.0
2017-Nov-15 18:14N 34°14' W 119°16'0 0.0
2017-Nov-15 17:53N 34°14' W 119°16'0 0.2
2017-Nov-15 17:26N 34°14' W 119°16'4 3.4
2017-Nov-15 16:23N 34°11' W 119°16'5 8.0
2017-Nov-15 15:48N 34°07' W 119°12'3 7.9
2017-Nov-15 15:24N 34°05' W 119°09'1 1.3
2017-Nov-15 14:43N 34°05' W 119°08'0 0.2
2017-Nov-15 14:25N 34°05' W 119°08'0 0.1
2017-Nov-15 13:09N 34°05' W 119°08'0 0.4
2017-Nov-15 12:54N 34°05' W 119°08'0 0.1
2017-Nov-15 11:35N 34°05' W 119°08'0 0.0
2017-Nov-15 11:11N 34°05' W 119°08'0 0.0
2017-Nov-15 10:56N 34°05' W 119°08'0 0.0
2017-Nov-15 09:54N 34°05' W 119°08'0 0.0
2017-Nov-15 09:09N 34°05' W 119°08'0 0.0
2017-Nov-15 07:42N 34°05' W 119°08'0 0.0
2017-Nov-15 07:03N 34°05' W 119°08'0 0.3
2017-Nov-15 06:54N 34°05' W 119°08'0 0.0
2017-Nov-15 05:39N 34°05' W 119°08'0 0.0
2017-Nov-15 05:21N 34°05' W 119°08'0 0.1
2017-Nov-15 04:54N 34°05' W 119°08'0 0.0
2017-Nov-15 04:16N 34°05' W 119°08'0 0.0
2017-Nov-15 03:55N 34°05' W 119°08'0 0.2
2017-Nov-15 03:30N 34°05' W 119°08'0 0.0
2017-Nov-15 01:01N 34°05' W 119°08'0 0.3
2017-Nov-15 00:59N 34°05' W 119°08'4 7.1
2017-Nov-15 00:23N 34°07' W 119°12'4 8.4
2017-Nov-14 23:56N 34°10' W 119°15'4 8.1
2017-Nov-14 23:30N 34°14' W 119°17'1 1.7
2017-Nov-14 22:56N 34°14' W 119°16'0 0.0
2017-Nov-14 22:29N 34°14' W 119°16'0 0.0
2017-Nov-14 21:56N 34°14' W 119°16'0 0.0
2017-Nov-14 21:26N 34°14' W 119°16'0 0.0
2017-Nov-14 20:59N 34°14' W 119°16'0 0.0
2017-Nov-14 20:29N 34°14' W 119°16'0 0.0
2017-Nov-14 19:53N 34°14' W 119°16'0 0.0
2017-Nov-14 19:29N 34°14' W 119°16'0 0.0
2017-Nov-14 18:47N 34°14' W 119°16'0 0.0
2017-Nov-14 18:20N 34°14' W 119°16'0 0.0
2017-Nov-14 17:59N 34°14' W 119°16'0 0.0
2017-Nov-14 17:29N 34°14' W 119°16'0 0.1
2017-Nov-14 16:32N 34°14' W 119°16'0 0.2
2017-Nov-14 16:30N 34°14' W 119°16'2 4.3
2017-Nov-14 15:57N 34°12' W 119°16'4 8.0
2017-Nov-14 15:30N 34°09' W 119°14'4 7.7
2017-Nov-14 14:59N 34°06' W 119°11'2 5.1
2017-Nov-14 14:30N 34°05' W 119°08'0 0.1
2017-Nov-14 13:58N 34°05' W 119°08'0 0.2
2017-Nov-14 13:30N 34°05' W 119°08'0 0.2
2017-Nov-14 12:57N 34°05' W 119°08'0 0.2
2017-Nov-14 12:29N 34°05' W 119°08'0 0.1
2017-Nov-14 11:38N 34°05' W 119°08'0 0.0
2017-Nov-14 11:11N 34°05' W 119°08'0 0.0
2017-Nov-14 10:48N 34°05' W 119°08'0 0.0
2017-Nov-14 10:30N 34°05' W 119°08'0 0.0
2017-Nov-14 09:47N 34°05' W 119°08'0 0.0
2017-Nov-14 07:59N 34°05' W 119°08'0 0.0
2017-Nov-14 07:29N 34°05' W 119°08'0 0.0
2017-Nov-14 06:56N 34°05' W 119°08'0 0.0
2017-Nov-14 06:16N 34°05' W 119°08'0 0.0
2017-Nov-14 05:52N 34°05' W 119°08'0 0.0
2017-Nov-14 05:28N 34°05' W 119°08'0 0.0
2017-Nov-14 04:49N 34°05' W 119°08'0 0.0
2017-Nov-14 03:25N 34°05' W 119°08'0 0.0
2017-Nov-14 02:40N 34°05' W 119°08'0 0.0
2017-Nov-14 01:10N 34°05' W 119°08'0 1.7
2017-Nov-14 01:00N 34°05' W 119°08'4 8.1
2017-Nov-14 00:28N 34°07' W 119°13'4 8.1
2017-Nov-14 00:00N 34°10' W 119°15'4 8.1
2017-Nov-13 23:30N 34°14' W 119°17'1 0.9
2017-Nov-13 22:48N 34°14' W 119°16'0 0.0
2017-Nov-13 22:27N 34°14' W 119°16'0 0.0
2017-Nov-13 21:57N 34°14' W 119°16'20 0.9
2017-Nov-13 00:22N 34°03' W 119°36'0 0.0
2017-Nov-12 23:55N 34°03' W 119°36'0 0.0
2017-Nov-12 23:19N 34°03' W 119°36'0 0.0
2017-Nov-12 22:10N 34°03' W 119°36'0 0.0
2017-Nov-12 21:58N 34°03' W 119°36'0 0.0
2017-Nov-12 21:28N 34°03' W 119°36'0 0.0
2017-Nov-12 20:25N 34°03' W 119°36'  

Dump ship's entire track history